Time;durP1;ratioP1;P1;durP2;ratioP2;P2;SDS_P1;SDS_P2;PMS_P1;PMS_P2;Temp;Humidity;BMP_temperature;BMP_pressure;BME280_temperature;BME280_humidity;BME280_pressure;Samples;Min_cycle;Max_cycle;Signal;HPM_P1;HPM_P2
2022/10/04 00:01:03;;;;;;;11.00;9.87;;;7.40;99.90;;;;;;6309880;22;20420;-68
2022/10/04 00:03:35;;;;;;;14.63;9.53;;;7.40;99.90;;;;;;6309874;22;20378;-68
2022/10/04 00:06:07;;;;;;;9.63;8.70;;;7.50;99.90;;;;;;6309711;22;20445;-68
2022/10/04 00:08:41;;;;;;;10.33;8.70;;;7.50;99.90;;;;;;6309856;22;20422;-68
2022/10/04 00:11:18;;;;;;;10.40;9.40;;;7.50;99.90;;;;;;6310240;22;20420;-68
2022/10/04 00:13:50;;;;;;;9.53;8.53;;;7.50;99.90;;;;;;6310159;22;20397;-68
2022/10/04 00:16:32;;;;;;;15.83;9.47;;;7.50;99.90;;;;;;6309491;22;20455;-68
2022/10/04 00:19:41;;;;;;;10.40;9.30;;;7.50;99.90;;;;;;6310281;22;20423;-68
2022/10/04 00:22:34;;;;;;;11.30;9.47;;;7.60;99.90;;;;;;6309557;22;20412;-68
2022/10/04 00:25:36;;;;;;;9.20;7.57;;;7.60;99.90;;;;;;6310159;22;20448;-68
2022/10/04 00:28:29;;;;;;;10.10;9.10;;;7.60;99.90;;;;;;6309546;22;20699;-68
2022/10/04 00:31:11;;;;;;;10.00;8.90;;;7.60;99.90;;;;;;6309296;22;20478;-68
2022/10/04 00:33:40;;;;;;;8.77;7.73;;;7.70;99.90;;;;;;6309475;22;20807;-68
2022/10/04 00:36:40;;;;;;;9.30;8.40;;;7.70;99.90;;;;;;6309533;22;20412;-68
2022/10/04 00:39:42;;;;;;;8.77;7.87;;;7.80;99.90;;;;;;6309363;22;20391;-68
2022/10/04 00:42:51;;;;;;;9.53;8.30;;;7.90;99.90;;;;;;6310046;22;20757;-68
2022/10/04 00:45:26;;;;;;;11.57;8.60;;;7.90;99.90;;;;;;6309266;22;20450;-68
2022/10/04 00:48:16;;;;;;;9.03;7.80;;;8.00;99.90;;;;;;6309864;22;20455;-68
2022/10/04 00:50:46;;;;;;;8.70;7.90;;;8.00;99.90;;;;;;6309549;22;20425;-68
2022/10/04 00:53:21;;;;;;;14.20;8.40;;;7.90;99.90;;;;;;6310060;22;20420;-68
2022/10/04 00:55:54;;;;;;;8.60;7.57;;;8.00;99.90;;;;;;6309379;22;20478;-68
2022/10/04 00:58:27;;;;;;;8.60;7.23;;;8.10;99.90;;;;;;6309756;22;20703;-68
2022/10/04 01:00:57;;;;;;;9.13;8.23;;;8.00;99.90;;;;;;6309395;22;20416;-68
2022/10/04 01:03:30;;;;;;;10.10;8.00;;;7.90;99.90;;;;;;6309888;22;20398;-68
2022/10/04 01:06:01;;;;;;;8.70;7.80;;;7.90;99.90;;;;;;6308698;22;20529;-68
2022/10/04 01:08:35;;;;;;;8.90;7.90;;;7.80;99.90;;;;;;6309263;22;20417;-68
2022/10/04 01:11:10;;;;;;;8.30;7.20;;;7.70;99.90;;;;;;6308983;22;20406;-68
2022/10/04 01:13:40;;;;;;;8.50;7.50;;;7.60;99.90;;;;;;6309708;22;20822;-68
2022/10/04 01:16:13;;;;;;;10.43;8.17;;;7.60;99.90;;;;;;6308670;22;20771;-69
2022/10/04 01:18:42;;;;;;;9.40;7.07;;;7.60;99.90;;;;;;6309657;22;20416;-68
2022/10/04 01:21:22;;;;;;;8.77;7.03;;;7.60;99.90;;;;;;6308793;22;20474;-68
2022/10/04 01:23:52;;;;;;;8.73;7.80;;;7.60;99.90;;;;;;6309509;22;20418;-68
2022/10/04 01:26:40;;;;;;;12.00;8.20;;;7.70;99.90;;;;;;6308337;22;20444;-69
2022/10/04 01:29:10;;;;;;;8.70;7.80;;;7.70;99.90;;;;;;6309566;22;20732;-69
2022/10/04 01:31:40;;;;;;;9.20;7.23;;;7.70;99.90;;;;;;6309462;22;20423;-69
2022/10/04 01:34:08;;;;;;;9.67;8.80;;;7.60;99.90;;;;;;6309612;22;20387;-69
2022/10/04 01:36:36;;;;;;;8.90;7.90;;;7.70;99.90;;;;;;6309578;22;20420;-68
2022/10/04 01:39:06;;;;;;;11.10;7.30;;;7.70;99.90;;;;;;6310501;22;20416;-69
2022/10/04 01:41:52;;;;;;;8.90;8.10;;;7.70;99.90;;;;;;6311387;22;20422;-68
2022/10/04 01:44:26;;;;;;;8.33;7.53;;;7.70;99.90;;;;;;6311056;22;20443;-69
2022/10/04 01:46:56;;;;;;;8.13;7.00;;;7.70;99.90;;;;;;6311305;22;20416;-68
2022/10/04 01:49:29;;;;;;;9.50;6.73;;;7.70;99.90;;;;;;6311671;22;20852;-68
2022/10/04 01:51:59;;;;;;;13.03;8.00;;;7.70;99.90;;;;;;6311163;22;20420;-69
2022/10/04 01:54:37;;;;;;;11.00;8.10;;;7.60;99.90;;;;;;6311046;22;20393;-69
2022/10/04 01:57:16;;;;;;;10.03;8.33;;;7.60;99.90;;;;;;6311201;22;20397;-69
2022/10/04 01:59:49;;;;;;;7.70;6.90;;;7.50;99.90;;;;;;6311504;22;20412;-69
2022/10/04 02:02:25;;;;;;;8.07;7.27;;;7.50;99.90;;;;;;6310711;22;20423;-69
2022/10/04 02:04:57;;;;;;;7.33;6.60;;;7.50;99.90;;;;;;6310759;22;20555;-69
2022/10/04 02:07:28;;;;;;;15.17;7.67;;;7.50;99.90;;;;;;6311439;22;20412;-69
2022/10/04 02:10:05;;;;;;;8.50;7.60;;;7.50;99.90;;;;;;6311354;22;20902;-69
2022/10/04 02:12:33;;;;;;;8.40;7.50;;;7.40;99.90;;;;;;6311352;22;20424;-69
2022/10/04 02:15:04;;;;;;;8.57;7.07;;;7.40;99.90;;;;;;6310806;22;20515;-69
2022/10/04 02:17:38;;;;;;;8.80;8.00;;;7.40;99.90;;;;;;6311629;22;21043;-69
2022/10/04 02:20:12;;;;;;;9.70;8.17;;;7.40;99.90;;;;;;6311673;22;20421;-69
2022/10/04 02:22:42;;;;;;;9.13;8.10;;;7.50;99.90;;;;;;6311022;22;20421;-69
2022/10/04 02:25:12;;;;;;;10.00;8.53;;;7.50;99.90;;;;;;6310601;22;20721;-69
2022/10/04 02:27:39;;;;;;;13.67;9.63;;;7.70;99.90;;;;;;6311463;22;20667;-69
2022/10/04 02:30:10;;;;;;;13.40;9.57;;;7.80;99.90;;;;;;6310443;22;20412;-69
2022/10/04 02:32:58;;;;;;;11.47;8.50;;;7.90;99.90;;;;;;6310551;22;20408;-69
2022/10/04 02:35:28;;;;;;;12.73;8.10;;;7.90;99.90;;;;;;6311557;22;20412;-69
2022/10/04 02:38:07;;;;;;;10.10;9.10;;;7.90;99.90;;;;;;6310641;22;20420;-69
2022/10/04 02:40:40;;;;;;;10.20;8.70;;;7.90;99.90;;;;;;6310196;22;20422;-68
2022/10/04 02:43:13;;;;;;;10.73;8.53;;;7.90;99.90;;;;;;6310996;22;20416;-69
2022/10/04 02:45:47;;;;;;;9.57;8.57;;;7.90;99.90;;;;;;6310931;22;20451;-69
2022/10/04 02:48:35;;;;;;;9.33;7.73;;;7.90;99.90;;;;;;6308709;22;20428;-69
2022/10/04 02:51:19;;;;;;;9.00;8.13;;;7.90;99.90;;;;;;6311069;22;20426;-69
2022/10/04 02:54:00;;;;;;;11.00;7.83;;;7.80;99.90;;;;;;6310956;22;20424;-69
2022/10/04 02:56:32;;;;;;;7.87;7.00;;;7.70;99.90;;;;;;6310606;22;20393;-69
2022/10/04 02:59:05;;;;;;;8.63;7.70;;;7.70;99.90;;;;;;6310447;22;20408;-69
2022/10/04 03:01:51;;;;;;;8.53;7.37;;;7.80;99.90;;;;;;6311033;22;20412;-69
2022/10/04 03:04:22;;;;;;;11.67;7.37;;;7.80;99.90;;;;;;6309618;22;20416;-69
2022/10/04 03:06:50;;;;;;;9.53;7.80;;;7.80;99.90;;;;;;6310222;22;20416;-69
2022/10/04 03:09:20;;;;;;;7.90;6.63;;;7.80;99.90;;;;;;6309428;22;20693;-69
2022/10/04 03:11:53;;;;;;;8.43;7.63;;;7.80;99.90;;;;;;6310142;22;20782;-69
2022/10/04 03:14:23;;;;;;;10.27;6.67;;;7.80;99.90;;;;;;6309780;22;20448;-69
2022/10/04 03:16:54;;;;;;;10.90;8.40;;;7.80;99.90;;;;;;6310060;22;20452;-68
2022/10/04 03:19:23;;;;;;;13.23;7.17;;;7.80;99.90;;;;;;6310445;22;20395;-69
2022/10/04 03:21:55;;;;;;;17.73;8.40;;;7.90;99.90;;;;;;6309749;22;20420;-69
2022/10/04 03:24:30;;;;;;;8.53;7.73;;;7.90;99.90;;;;;;6308297;22;20697;-69
2022/10/04 03:27:02;;;;;;;9.20;7.30;;;7.90;99.90;;;;;;6308699;22;20633;-69
2022/10/04 03:29:33;;;;;;;8.10;7.30;;;7.90;99.90;;;;;;6308678;22;20838;-69
2022/10/04 03:32:03;;;;;;;8.93;7.60;;;7.90;99.90;;;;;;6308885;22;20425;-69
2022/10/04 03:34:37;;;;;;;11.83;6.80;;;7.90;99.90;;;;;;6308459;22;20416;-69
2022/10/04 03:37:08;;;;;;;8.00;7.03;;;7.80;99.90;;;;;;6309817;22;20479;-69
2022/10/04 03:39:41;;;;;;;12.30;8.40;;;7.80;99.90;;;;;;6309347;22;20424;-69
2022/10/04 03:42:14;;;;;;;8.60;6.80;;;7.70;99.90;;;;;;6309762;22;20391;-69
2022/10/04 03:44:41;;;;;;;8.13;6.93;;;7.70;99.90;;;;;;6310233;22;20416;-69
2022/10/04 03:47:11;;;;;;;7.60;6.43;;;7.60;99.90;;;;;;6310925;22;20395;-69
2022/10/04 03:49:40;;;;;;;8.03;7.20;;;7.70;99.90;;;;;;6310653;22;20420;-69
2022/10/04 03:52:13;;;;;;;7.47;6.70;;;7.80;99.90;;;;;;6309197;22;20890;-69
2022/10/04 03:54:41;;;;;;;8.67;7.73;;;7.90;99.90;;;;;;6309918;22;20740;-69
2022/10/04 03:57:11;;;;;;;12.17;7.80;;;7.90;99.90;;;;;;6310609;22;20856;-69
2022/10/04 03:59:38;;;;;;;8.73;7.50;;;7.90;99.90;;;;;;6310132;22;20842;-69
2022/10/04 04:02:13;;;;;;;8.37;7.03;;;8.00;99.90;;;;;;6309120;22;20420;-70
2022/10/04 04:04:52;;;;;;;9.00;7.80;;;8.00;99.90;;;;;;6310217;22;20830;-69
2022/10/04 04:07:25;;;;;;;9.30;8.10;;;8.10;99.90;;;;;;6310234;22;20489;-70
2022/10/04 04:09:57;;;;;;;8.63;7.73;;;8.00;99.90;;;;;;6310184;22;20421;-70
2022/10/04 04:12:39;;;;;;;8.63;7.77;;;8.00;99.90;;;;;;6309897;22;20724;-70
2022/10/04 04:15:10;;;;;;;9.70;7.60;;;8.00;99.90;;;;;;6309770;22;20423;-70
2022/10/04 04:17:45;;;;;;;8.47;7.67;;;7.90;99.90;;;;;;6310137;22;20427;-70
2022/10/04 04:20:20;;;;;;;9.83;6.90;;;7.80;99.90;;;;;;6309620;22;20422;-70
2022/10/04 04:22:58;;;;;;;8.40;7.57;;;7.80;99.90;;;;;;6307907;22;20434;-70
2022/10/04 04:25:27;;;;;;;10.67;7.07;;;7.70;99.90;;;;;;6310105;22;20444;-70
2022/10/04 04:28:05;;;;;;;10.73;7.67;;;7.70;99.90;;;;;;6310044;22;20423;-70
2022/10/04 04:30:38;;;;;;;8.47;7.50;;;7.60;99.90;;;;;;6308810;22;20401;-70
2022/10/04 04:33:15;;;;;;;12.67;7.67;;;7.60;99.90;;;;;;6309467;22;20416;-70
2022/10/04 04:35:45;;;;;;;10.17;8.03;;;7.60;99.90;;;;;;6310032;22;20412;-70
2022/10/04 04:38:20;;;;;;;11.23;9.33;;;7.60;99.90;;;;;;6309608;22;20417;-70
2022/10/04 04:40:48;;;;;;;10.10;7.93;;;7.60;99.90;;;;;;6309336;22;20390;-69
2022/10/04 04:43:19;;;;;;;10.70;9.03;;;7.60;99.90;;;;;;6309414;22;20419;-69
2022/10/04 04:45:48;;;;;;;13.43;8.17;;;7.60;99.90;;;;;;6309718;22;20487;-69
2022/10/04 04:48:18;;;;;;;10.13;8.83;;;7.70;99.90;;;;;;6309752;22;20777;-68
2022/10/04 04:50:58;;;;;;;12.47;8.10;;;7.70;99.90;;;;;;6309982;22;20825;-68
2022/10/04 04:53:29;;;;;;;10.23;9.10;;;7.70;99.90;;;;;;6306804;22;20458;-68
2022/10/04 04:55:58;;;;;;;13.70;9.50;;;7.70;99.90;;;;;;6308950;22;20718;-68
2022/10/04 04:58:34;;;;;;;15.57;8.70;;;7.60;99.90;;;;;;6309287;22;20827;-68
2022/10/04 05:01:04;;;;;;;12.97;8.47;;;7.60;99.90;;;;;;6310266;22;20710;-68
2022/10/04 05:03:34;;;;;;;10.60;9.00;;;7.60;99.90;;;;;;6309869;22;20786;-68
2022/10/04 05:06:03;;;;;;;14.17;8.23;;;7.70;99.90;;;;;;6308686;22;20522;-67
2022/10/04 05:08:32;;;;;;;11.07;9.17;;;7.70;99.90;;;;;;6309513;22;20442;-67
2022/10/04 05:11:06;;;;;;;11.93;8.50;;;7.70;99.90;;;;;;6309507;22;20514;-67
2022/10/04 05:13:41;;;;;;;10.80;8.60;;;7.70;99.90;;;;;;6309241;22;20515;-67
2022/10/04 05:16:14;;;;;;;12.60;8.90;;;7.70;99.90;;;;;;6309379;22;20686;-66
2022/10/04 05:18:42;;;;;;;9.17;7.23;;;7.60;99.90;;;;;;6309376;22;20866;-67
2022/10/04 05:21:17;;;;;;;8.47;7.60;;;7.60;99.90;;;;;;6309358;22;20420;-67
2022/10/04 05:23:44;;;;;;;12.43;8.20;;;7.70;99.90;;;;;;6310041;22;20419;-67
2022/10/04 05:26:13;;;;;;;10.50;8.67;;;7.80;99.90;;;;;;6307296;22;20455;-69
2022/10/04 05:28:42;;;;;;;10.47;8.23;;;7.90;99.90;;;;;;6309068;22;20420;-67
2022/10/04 05:31:27;;;;;;;14.80;8.63;;;7.90;99.90;;;;;;6309590;22;20422;-67
2022/10/04 05:33:58;;;;;;;13.10;8.13;;;8.00;99.90;;;;;;6310184;22;20416;-67
2022/10/04 05:36:58;;;;;;;9.30;8.33;;;8.00;99.90;;;;;;6308760;22;20518;-66
2022/10/04 05:39:29;;;;;;;9.60;7.13;;;8.10;99.90;;;;;;6309624;22;20868;-66
2022/10/04 05:42:09;;;;;;;9.27;8.03;;;8.30;99.90;;;;;;6308500;22;20416;-66
2022/10/04 05:44:51;;;;;;;10.23;8.73;;;8.40;99.90;;;;;;6309046;22;20420;-67
2022/10/04 05:47:25;;;;;;;10.57;8.80;;;8.40;99.90;;;;;;6307999;22;20452;-67
2022/10/04 05:49:56;;;;;;;11.00;7.80;;;8.40;99.90;;;;;;6310263;22;20416;-66
2022/10/04 05:52:33;;;;;;;9.90;7.63;;;8.40;99.90;;;;;;6309027;22;20416;-67
2022/10/04 05:55:27;;;;;;;13.60;7.83;;;8.40;99.90;;;;;;6308963;22;20420;-67
2022/10/04 05:58:25;;;;;;;13.73;7.87;;;8.30;99.90;;;;;;6263089;22;20418;-67
2022/10/04 06:01:18;;;;;;;16.37;7.60;;;8.30;99.90;;;;;;6277466;22;20442;-67
2022/10/04 06:04:16;;;;;;;8.57;7.67;;;8.30;99.90;;;;;;6309458;22;20418;-67
2022/10/04 06:06:49;;;;;;;8.90;7.63;;;8.20;99.90;;;;;;6270596;22;20423;-66
2022/10/04 06:09:35;;;;;;;8.70;7.73;;;8.20;99.90;;;;;;6307219;22;20423;-66
2022/10/04 06:12:10;;;;;;;9.47;7.90;;;8.10;99.90;;;;;;6308125;22;20473;-66
2022/10/04 06:14:59;;;;;;;10.90;8.17;;;8.20;99.90;;;;;;6307745;22;20422;-67
2022/10/04 06:17:55;;;;;;;10.80;7.37;;;8.20;99.90;;;;;;6307153;22;20522;-67
2022/10/04 06:20:49;;;;;;;9.97;7.90;;;8.20;99.90;;;;;;6307591;22;20412;-67
2022/10/04 06:23:19;;;;;;;12.07;9.23;;;8.30;99.90;;;;;;6309399;22;20412;-67
2022/10/04 06:25:50;;;;;;;10.17;8.10;;;8.30;99.90;;;;;;6310823;22;20800;-67
2022/10/04 06:28:22;;;;;;;12.53;8.17;;;8.40;99.90;;;;;;6310134;22;20456;-67
2022/10/04 06:31:10;;;;;;;12.93;8.20;;;8.40;99.90;;;;;;6311057;22;20402;-67
2022/10/04 06:33:51;;;;;;;10.33;8.83;;;8.50;99.90;;;;;;6311177;22;20489;-67
2022/10/04 06:36:39;;;;;;;10.47;8.53;;;8.60;99.90;;;;;;6310465;22;20510;-67
2022/10/04 06:39:38;;;;;;;11.40;7.70;;;8.60;99.90;;;;;;6310428;22;20423;-67
2022/10/04 06:42:23;;;;;;;8.80;7.83;;;8.70;99.90;;;;;;6310274;22;20409;-67
2022/10/04 06:45:16;;;;;;;9.37;7.10;;;8.70;99.90;;;;;;6310245;22;20434;-67
2022/10/04 06:48:04;;;;;;;7.77;6.87;;;8.80;99.90;;;;;;6311169;22;20430;-67
2022/10/04 06:50:42;;;;;;;10.77;7.30;;;8.90;99.90;;;;;;6310860;22;20853;-66
2022/10/04 06:53:30;;;;;;;10.10;8.17;;;9.00;99.90;;;;;;6310886;22;20412;-66
2022/10/04 06:56:13;;;;;;;11.67;8.10;;;9.10;99.90;;;;;;6311130;22;20857;-66
2022/10/04 06:59:23;;;;;;;9.70;7.60;;;9.30;99.90;;;;;;6310561;22;20949;-66
2022/10/04 07:01:57;;;;;;;9.33;7.50;;;9.40;99.90;;;;;;6311362;22;20682;-66
2022/10/04 07:04:34;;;;;;;9.67;7.27;;;9.60;99.90;;;;;;6309938;22;20452;-66
2022/10/04 07:07:34;;;;;;;9.83;8.23;;;9.70;99.90;;;;;;6310513;22;20501;-66
2022/10/04 07:10:23;;;;;;;11.33;8.87;;;9.90;99.90;;;;;;6310739;22;20416;-66
2022/10/04 07:13:02;;;;;;;12.57;8.83;;;10.10;99.90;;;;;;6310648;22;20424;-64
2022/10/04 07:15:35;;;;;;;14.03;8.53;;;10.30;99.90;;;;;;6310282;22;20450;-64
2022/10/04 07:18:08;;;;;;;10.13;8.40;;;10.40;99.90;;;;;;6310208;22;20420;-63
2022/10/04 07:20:37;;;;;;;13.27;8.20;;;10.50;99.90;;;;;;6309699;22;20420;-64
2022/10/04 07:23:17;;;;;;;10.40;8.30;;;10.70;99.90;;;;;;6309349;22;20391;-64
2022/10/04 07:25:49;;;;;;;14.27;8.60;;;10.90;99.90;;;;;;6308412;22;20444;-64
2022/10/04 07:31:14;;;;;;;11.17;8.77;;;11.10;1.00;;;;;;6310255;22;20419;-63
2022/10/04 07:33:47;;;;;;;10.23;7.60;;;11.40;99.90;;;;;;6310032;22;20416;-63
2022/10/04 07:36:18;;;;;;;11.77;7.73;;;11.50;99.90;;;;;;6310314;22;20451;-63
2022/10/04 07:38:51;;;;;;;9.93;8.10;;;11.70;1.00;;;;;;6310553;22;20511;-64
2022/10/04 07:41:26;;;;;;;12.40;7.37;;;11.80;98.90;;;;;;6310512;22;20437;-63
2022/10/04 07:43:58;;;;;;;10.70;8.10;;;11.90;1.00;;;;;;6310066;22;20849;-63
2022/10/04 07:46:39;;;;;;;13.77;9.40;;;12.00;92.80;;;;;;6309817;22;20445;-64
2022/10/04 07:49:15;;;;;;;10.87;7.60;;;12.10;1.00;;;;;;6310382;22;20763;-64
2022/10/04 07:51:53;;;;;;;10.20;9.00;;;12.30;99.90;;;;;;6310567;22;20391;-64
2022/10/04 07:54:26;;;;;;;11.40;6.80;;;12.40;99.90;;;;;;6309458;22;20493;-63
2022/10/04 07:56:57;;;;;;;7.87;7.07;;;12.50;99.90;;;;;;6310164;22;20413;-64
2022/10/04 07:59:37;;;;;;;10.30;6.40;;;12.60;99.90;;;;;;6310334;22;20416;-64
2022/10/04 08:02:22;;;;;;;8.37;7.57;;;12.60;57.70;;;;;;6309711;22;20422;-63
2022/10/04 08:05:01;;;;;;;11.07;6.70;;;12.70;80.00;;;;;;6309965;22;20420;-63
2022/10/04 08:07:45;;;;;;;9.27;7.10;;;12.90;26.80;;;;;;6310499;22;20744;-63
2022/10/04 08:10:24;;;;;;;8.70;6.50;;;13.00;1.00;;;;;;6309974;22;20416;-63
2022/10/04 08:12:58;;;;;;;8.60;6.30;;;13.00;1.00;;;;;;6310457;22;20416;-63
2022/10/04 08:15:35;;;;;;;10.03;5.90;;;13.20;1.00;;;;;;6309703;22;20398;-63
2022/10/04 08:18:17;;;;;;;8.50;6.40;;;13.30;1.00;;;;;;6309340;22;20847;-63
2022/10/04 08:20:48;;;;;;;8.87;6.40;;;13.30;1.00;;;;;;6308969;22;20698;-63
2022/10/04 08:23:41;;;;;;;14.40;6.20;;;13.30;1.00;;;;;;6310301;22;20848;-63
2022/10/04 08:26:32;;;;;;;8.00;6.40;;;13.50;1.00;;;;;;6308850;22;20440;-63
2022/10/04 08:32:06;;;;;;;7.13;6.20;;;13.70;1.00;;;;;;6307185;22;20379;-63
2022/10/04 08:35:01;;;;;;;10.20;6.30;;;13.90;1.00;;;;;;6309149;22;20391;-63
2022/10/04 08:37:48;;;;;;;8.90;5.87;;;14.00;1.00;;;;;;6309463;22;20413;-63
2022/10/04 08:40:48;;;;;;;6.70;5.60;;;14.10;1.00;;;;;;6308687;22;20426;-63
2022/10/04 08:43:54;;;;;;;8.23;6.07;;;14.20;1.00;;;;;;6308918;22;20416;-63
2022/10/04 08:46:58;;;;;;;8.60;5.50;;;14.50;1.00;;;;;;6308772;22;20476;-63
2022/10/04 08:50:00;;;;;;;6.90;5.50;;;14.90;1.00;;;;;;6233127;22;20757;-63
2022/10/04 08:52:50;;;;;;;9.60;6.60;;;15.10;1.00;;;;;;6261258;22;20397;-63
2022/10/04 08:56:03;;;;;;;8.13;5.30;;;15.10;1.00;;;;;;6309197;22;20412;-63
2022/10/04 08:59:06;;;;;;;6.53;5.90;;;15.10;1.00;;;;;;6221097;22;20435;-63
2022/10/04 09:02:06;;;;;;;9.97;5.70;;;15.00;1.00;;;;;;6300420;22;20473;-63
2022/10/04 09:05:14;;;;;;;6.17;5.57;;;15.40;1.00;;;;;;6309241;22;20416;-63
2022/10/04 09:08:17;;;;;;;8.67;5.83;;;15.90;1.00;;;;;;6289506;22;20913;-62
2022/10/04 09:10:58;;;;;;;10.07;5.40;;;16.60;1.00;;;;;;6309289;22;20420;-63
2022/10/04 09:13:40;;;;;;;6.47;5.20;;;17.10;1.00;;;;;;6309781;22;20420;-63
2022/10/04 09:16:17;;;;;;;6.20;5.40;;;17.60;1.00;;;;;;6309046;22;20422;-63
2022/10/04 09:19:21;;;;;;;9.53;5.13;;;17.50;99.90;;;;;;6309391;22;20426;-63
2022/10/04 09:22:31;;;;;;;4.93;4.43;;;17.50;99.90;;;;;;6310109;22;20424;-63
2022/10/04 09:25:20;;;;;;;5.00;4.20;;;17.80;99.90;;;;;;6154647;23;20390;-63
2022/10/04 09:28:12;;;;;;;6.23;5.00;;;18.00;99.90;;;;;;6154892;23;20815;-63
2022/10/04 09:30:53;;;;;;;4.77;4.37;;;18.40;99.90;;;;;;6257835;22;20420;-64
2022/10/04 09:33:46;;;;;;;6.87;5.30;;;18.70;99.90;;;;;;6309454;22;20422;-64
2022/10/04 09:36:43;;;;;;;6.10;4.67;;;18.60;99.90;;;;;;6306062;22;20424;-64
2022/10/04 09:39:57;;;;;;;7.73;5.50;;;18.60;99.90;;;;;;6308780;22;20851;-63
2022/10/04 09:43:11;;;;;;;8.43;5.30;;;18.50;99.90;;;;;;6213067;23;20892;-64
2022/10/04 09:46:03;;;;;;;6.90;4.90;;;18.60;99.90;;;;;;6181955;23;20419;-64
2022/10/04 09:48:39;;;;;;;5.10;4.30;;;18.90;99.90;;;;;;6304516;22;20422;-64
2022/10/04 09:51:58;;;;;;;11.20;4.90;;;19.40;99.90;;;;;;6309697;22;20420;-64
2022/10/04 09:54:58;;;;;;;7.43;4.70;;;19.40;99.90;;;;;;6263365;22;20420;-64
2022/10/04 09:57:40;;;;;;;6.80;4.73;;;19.50;99.90;;;;;;6287021;22;20803;-64
2022/10/04 10:00:23;;;;;;;5.63;5.03;;;19.40;99.90;;;;;;6311229;22;20691;-63
2022/10/04 10:03:22;;;;;;;5.70;5.10;;;19.40;99.90;;;;;;6311501;22;20390;-65
2022/10/04 10:06:22;;;;;;;7.63;5.53;;;19.30;99.90;;;;;;6309055;22;20431;-64
2022/10/04 10:09:01;;;;;;;5.30;4.70;;;19.30;99.90;;;;;;6311827;22;20688;-64
2022/10/04 10:14:54;;;;;;;4.90;4.50;;;19.90;99.90;;;;;;6310923;22;20537;-64
2022/10/04 10:17:35;;;;;;;5.90;4.13;;;20.10;99.90;;;;;;6310770;22;20412;-64
2022/10/04 10:20:37;;;;;;;6.80;4.80;;;19.90;99.90;;;;;;6311153;22;20833;-63
2022/10/04 10:23:49;;;;;;;6.70;4.40;;;20.20;99.90;;;;;;6311133;22;20393;-63
2022/10/04 10:26:35;;;;;;;5.77;4.50;;;20.40;99.90;;;;;;6215330;23;20445;-64
2022/10/04 10:29:38;;;;;;;9.23;5.10;;;20.10;99.90;;;;;;6308757;22;20418;-63
2022/10/04 10:32:38;;;;;;;8.33;4.67;;;20.00;99.90;;;;;;6310512;22;20845;-64
2022/10/04 10:35:48;;;;;;;5.20;4.20;;;20.40;99.90;;;;;;6303136;22;20686;-64
2022/10/04 10:38:35;;;;;;;5.33;3.97;;;20.30;99.90;;;;;;6310629;22;20408;-64
2022/10/04 10:41:22;;;;;;;7.97;4.50;;;20.00;99.90;;;;;;6310005;22;20752;-66
2022/10/04 10:44:20;;;;;;;5.37;4.00;;;20.20;99.90;;;;;;6311092;22;20482;-66
2022/10/04 10:47:04;;;;;;;6.27;4.00;;;20.50;99.90;;;;;;6310678;22;20395;-66
2022/10/04 10:49:49;;;;;;;4.73;4.00;;;20.70;99.90;;;;;;6310678;22;20478;-67
2022/10/04 10:52:54;;;;;;;5.50;3.97;;;20.80;99.90;;;;;;6310337;22;20412;-65
2022/10/04 10:55:52;;;;;;;7.97;4.23;;;21.10;99.90;;;;;;6310940;22;20426;-66
2022/10/04 10:58:48;;;;;;;5.47;4.20;;;21.40;99.90;;;;;;6310296;22;20416;-65
2022/10/04 11:01:53;;;;;;;4.10;3.70;;;21.10;99.90;;;;;;6263365;22;20401;-66
2022/10/04 11:04:48;;;;;;;7.60;4.50;;;20.90;99.90;;;;;;6310513;22;20423;-65
2022/10/04 11:07:50;;;;;;;4.50;4.10;;;20.60;99.90;;;;;;6310859;22;20448;-65
2022/10/04 11:11:02;;;;;;;4.70;4.00;;;20.40;99.90;;;;;;6309954;22;20842;-65
2022/10/04 11:13:54;;;;;;;6.47;3.80;;;20.40;99.90;;;;;;6311300;22;20804;-65
2022/10/04 11:17:02;;;;;;;5.90;4.63;;;20.60;99.90;;;;;;6298303;22;20399;-65
2022/10/04 11:20:15;;;;;;;5.67;4.13;;;21.00;99.90;;;;;;6310085;22;20419;-65
2022/10/04 11:23:17;;;;;;;4.67;4.00;;;21.00;99.90;;;;;;6310478;22;20734;-67
2022/10/04 11:26:11;;;;;;;7.10;4.03;;;20.70;99.90;;;;;;6310455;22;20965;-65
2022/10/04 11:28:45;;;;;;;5.77;3.50;;;20.60;99.90;;;;;;6309908;22;20764;-66
2022/10/04 11:31:44;;;;;;;4.50;3.77;;;20.70;99.90;;;;;;6310448;22;20395;-64
2022/10/04 11:35:13;;;;;;;5.37;3.30;;;20.80;99.90;;;;;;6310402;22;20436;-64
2022/10/04 11:38:04;;;;;;;3.50;3.20;;;20.80;99.90;;;;;;6310261;22;20392;-63
2022/10/04 11:40:47;;;;;;;3.80;3.40;;;21.10;99.90;;;;;;6307350;22;20430;-63
2022/10/04 11:43:36;;;;;;;4.80;4.27;;;21.30;99.90;;;;;;6309023;22;20732;-63
2022/10/04 11:46:23;;;;;;;5.10;4.00;;;21.70;99.90;;;;;;6308634;22;20482;-63
2022/10/04 11:49:12;;;;;;;3.70;3.30;;;21.90;99.90;;;;;;6309742;22;20525;-63
2022/10/04 11:52:20;;;;;;;4.13;3.23;;;22.10;99.90;;;;;;6308900;22;20835;-64
2022/10/04 11:55:20;;;;;;;4.40;4.00;;;22.10;99.90;;;;;;6270434;22;20423;-63
2022/10/04 11:57:51;;;;;;;4.00;3.30;;;22.40;99.90;;;;;;6308552;22;20417;-63
2022/10/04 12:00:24;;;;;;;4.73;3.80;;;22.20;99.90;;;;;;6307661;22;20808;-63
2022/10/04 12:03:08;;;;;;;3.57;3.27;;;22.60;99.90;;;;;;6307653;22;20423;-63
2022/10/04 12:06:09;;;;;;;4.80;3.60;;;22.60;99.90;;;;;;6307073;22;20860;-63
2022/10/04 12:09:04;;;;;;;3.43;3.10;;;22.50;99.90;;;;;;6310246;22;20465;-63
2022/10/04 12:15:07;;;;;;;4.30;3.17;;;22.20;99.90;;;;;;6309442;22;20399;-64
2022/10/04 12:18:04;;;;;;;5.03;3.43;;;21.70;99.90;;;;;;6309539;22;20412;-63
2022/10/04 12:20:55;;;;;;;5.37;3.43;;;21.80;99.90;;;;;;6307347;22;20416;-64
2022/10/04 12:24:04;;;;;;;4.43;3.47;;;21.70;99.90;;;;;;6308674;22;20416;-63
2022/10/04 12:27:02;;;;;;;4.47;4.00;;;22.10;99.90;;;;;;6233189;22;20436;-64
2022/10/04 12:30:13;;;;;;;5.30;3.60;;;22.20;99.90;;;;;;6295962;22;20420;-64
2022/10/04 12:32:52;;;;;;;4.23;3.60;;;22.30;99.90;;;;;;6308842;22;20412;-63
2022/10/04 12:35:29;;;;;;;3.67;3.27;;;22.20;99.90;;;;;;6308580;22;20420;-63
2022/10/04 12:38:38;;;;;;;4.10;3.50;;;22.40;99.90;;;;;;6307712;22;20412;-63
2022/10/04 12:41:17;;;;;;;4.17;3.63;;;22.50;99.90;;;;;;6303131;22;20420;-64
2022/10/04 12:43:55;;;;;;;6.40;3.70;;;22.10;99.90;;;;;;6308734;22;20466;-63
2022/10/04 12:46:35;;;;;;;4.17;3.87;;;21.90;99.90;;;;;;6309321;22;20510;-64
2022/10/04 12:49:24;;;;;;;3.90;3.50;;;22.10;99.90;;;;;;6309380;22;20448;-62
2022/10/04 12:51:58;;;;;;;6.37;3.97;;;22.00;99.90;;;;;;6309597;22;20420;-64
2022/10/04 12:54:36;;;;;;;3.93;3.50;;;22.20;99.90;;;;;;6308909;22;20422;-62
2022/10/04 12:57:27;;;;;;;7.50;3.70;;;22.30;99.90;;;;;;6309576;22;20420;-63
2022/10/04 13:00:05;;;;;;;5.00;4.17;;;22.10;99.90;;;;;;6309993;22;20393;-63
2022/10/04 13:02:45;;;;;;;4.47;3.70;;;21.90;99.90;;;;;;6309645;22;20850;-64
2022/10/04 13:05:21;;;;;;;4.90;3.30;;;21.80;99.90;;;;;;6309420;22;20462;-63
2022/10/04 13:08:07;;;;;;;4.10;3.70;;;22.20;99.90;;;;;;6309847;22;20879;-64
2022/10/04 13:10:48;;;;;;;7.20;3.90;;;21.80;99.90;;;;;;6309318;22;20416;-64
2022/10/04 13:13:47;;;;;;;7.10;3.63;;;22.00;99.90;;;;;;6309451;22;20516;-64
2022/10/04 13:16:23;;;;;;;4.13;3.40;;;22.10;99.90;;;;;;6307198;22;20390;-64
2022/10/04 13:19:00;;;;;;;5.90;3.90;;;22.20;99.90;;;;;;6308423;22;20781;-64
2022/10/04 13:21:57;;;;;;;4.73;3.63;;;22.40;99.90;;;;;;6309234;22;20522;-64
2022/10/04 13:24:53;;;;;;;4.97;4.00;;;22.80;99.90;;;;;;6309148;22;20418;-64
2022/10/04 13:27:22;;;;;;;5.27;3.47;;;23.00;99.90;;;;;;6308443;22;20467;-64
2022/10/04 13:29:59;;;;;;;6.80;4.00;;;23.10;99.90;;;;;;6309118;22;20424;-63
2022/10/04 13:32:33;;;;;;;5.40;3.10;;;23.00;99.90;;;;;;6309793;22;20416;-64
2022/10/04 13:35:11;;;;;;;3.30;3.10;;;23.00;99.90;;;;;;6309767;22;20422;-64
2022/10/04 13:37:50;;;;;;;4.37;3.57;;;22.80;99.90;;;;;;6310442;22;20547;-63
2022/10/04 13:40:28;;;;;;;4.20;3.80;;;22.50;99.90;;;;;;6309960;22;20426;-64
2022/10/04 13:43:27;;;;;;;4.20;3.80;;;22.30;99.90;;;;;;6311217;22;20455;-64
2022/10/04 13:46:11;;;;;;;3.87;3.47;;;21.90;99.90;;;;;;6312112;22;20419;-64
2022/10/04 13:49:06;;;;;;;4.70;3.33;;;22.00;99.90;;;;;;6310763;22;20426;-63
2022/10/04 13:57:43;;;;;;;3.80;3.20;;;22.30;99.90;;;;;;6311272;22;20567;-64
2022/10/04 14:00:13;;;;;;;3.70;3.17;;;22.20;99.90;;;;;;6310981;22;20419;-64
2022/10/04 14:03:01;;;;;;;4.20;3.80;;;22.10;99.90;;;;;;6311437;22;20778;-64
2022/10/04 14:06:12;;;;;;;5.03;3.63;;;21.90;99.90;;;;;;6312132;22;20514;-63
2022/10/04 14:09:10;;;;;;;4.43;2.90;;;21.80;99.90;;;;;;6303312;22;20447;-64
2022/10/04 14:12:15;;;;;;;4.00;3.60;;;21.80;99.90;;;;;;6312436;22;20416;-64
2022/10/04 14:15:19;;;;;;;3.17;2.83;;;21.80;99.90;;;;;;6312990;22;20416;-63
2022/10/04 14:18:28;;;;;;;3.43;3.10;;;21.80;99.90;;;;;;6312478;22;20412;-64
2022/10/04 14:21:33;;;;;;;4.93;4.03;;;21.80;99.90;;;;;;6312588;22;20411;-64
2022/10/04 14:24:45;;;;;;;4.70;4.20;;;21.40;99.90;;;;;;6312586;22;20427;-63
2022/10/04 14:27:57;;;;;;;3.53;3.23;;;21.20;99.90;;;;;;6312582;22;20505;-63
2022/10/04 14:30:42;;;;;;;5.17;3.70;;;21.20;99.90;;;;;;6187844;23;20411;-63